sensor_id;sensor_type;location;lat;lon;timestamp;temperature;humidity
42365;DHT22;28498;54.400;18.566;2023-05-10T00:00:21;7.40;99.90
42365;DHT22;28498;54.400;18.566;2023-05-10T00:02:50;7.30;99.90
42365;DHT22;28498;54.400;18.566;2023-05-10T00:05:17;7.30;99.90
42365;DHT22;28498;54.400;18.566;2023-05-10T00:07:44;7.30;99.90
42365;DHT22;28498;54.400;18.566;2023-05-10T00:10:11;7.20;99.90
42365;DHT22;28498;54.400;18.566;2023-05-10T00:12:39;7.20;99.90
42365;DHT22;28498;54.400;18.566;2023-05-10T00:15:06;7.20;99.90
42365;DHT22;28498;54.400;18.566;2023-05-10T00:17:34;7.20;99.90
42365;DHT22;28498;54.400;18.566;2023-05-10T00:20:01;7.20;99.90
42365;DHT22;28498;54.400;18.566;2023-05-10T00:22:28;7.20;99.90
42365;DHT22;28498;54.400;18.566;2023-05-10T00:24:55;7.10;99.90
42365;DHT22;28498;54.400;18.566;2023-05-10T00:27:22;7.10;99.90
42365;DHT22;28498;54.400;18.566;2023-05-10T00:29:49;7.00;99.90
42365;DHT22;28498;54.400;18.566;2023-05-10T00:32:16;7.00;99.90
42365;DHT22;28498;54.400;18.566;2023-05-10T00:34:43;7.00;99.90
42365;DHT22;28498;54.400;18.566;2023-05-10T00:37:10;6.90;99.90
42365;DHT22;28498;54.400;18.566;2023-05-10T00:39:37;6.80;99.90
42365;DHT22;28498;54.400;18.566;2023-05-10T00:42:04;6.70;99.90
42365;DHT22;28498;54.400;18.566;2023-05-10T00:44:31;6.80;99.90
42365;DHT22;28498;54.400;18.566;2023-05-10T00:46:59;6.60;99.90
42365;DHT22;28498;54.400;18.566;2023-05-10T00:49:26;6.50;99.90
42365;DHT22;28498;54.400;18.566;2023-05-10T00:51:53;6.50;1.00
42365;DHT22;28498;54.400;18.566;2023-05-10T00:54:20;6.40;1.00
42365;DHT22;28498;54.400;18.566;2023-05-10T00:56:47;6.30;1.00
42365;DHT22;28498;54.400;18.566;2023-05-10T00:59:16;6.30;1.00
42365;DHT22;28498;54.400;18.566;2023-05-10T01:01:47;6.20;1.00
42365;DHT22;28498;54.400;18.566;2023-05-10T01:04:15;6.10;1.00
42365;DHT22;28498;54.400;18.566;2023-05-10T01:06:42;6.10;1.00
42365;DHT22;28498;54.400;18.566;2023-05-10T01:09:09;6.10;1.00
42365;DHT22;28498;54.400;18.566;2023-05-10T01:11:39;6.10;1.00
42365;DHT22;28498;54.400;18.566;2023-05-10T01:14:07;6.00;1.40
42365;DHT22;28498;54.400;18.566;2023-05-10T01:16:38;6.10;20.90
42365;DHT22;28498;54.400;18.566;2023-05-10T01:19:16;6.00;26.50
42365;DHT22;28498;54.400;18.566;2023-05-10T01:24:37;5.90;76.10
42365;DHT22;28498;54.400;18.566;2023-05-10T01:35:43;5.60;99.90
42365;DHT22;28498;54.400;18.566;2023-05-10T01:38:38;5.70;99.90
42365;DHT22;28498;54.400;18.566;2023-05-10T01:44:01;5.70;1.00
42365;DHT22;28498;54.400;18.566;2023-05-10T01:46:38;5.60;99.90
42365;DHT22;28498;54.400;18.566;2023-05-10T01:49:26;5.60;99.90
42365;DHT22;28498;54.400;18.566;2023-05-10T01:52:00;5.60;99.90
42365;DHT22;28498;54.400;18.566;2023-05-10T01:54:32;5.60;99.90
42365;DHT22;28498;54.400;18.566;2023-05-10T01:57:03;5.60;99.90
42365;DHT22;28498;54.400;18.566;2023-05-10T01:59:34;5.50;1.00
42365;DHT22;28498;54.400;18.566;2023-05-10T02:02:04;5.40;99.90
42365;DHT22;28498;54.400;18.566;2023-05-10T02:04:35;5.30;99.90
42365;DHT22;28498;54.400;18.566;2023-05-10T02:07:05;5.20;1.00
42365;DHT22;28498;54.400;18.566;2023-05-10T02:09:34;5.10;99.90
42365;DHT22;28498;54.400;18.566;2023-05-10T02:12:02;5.00;1.00
42365;DHT22;28498;54.400;18.566;2023-05-10T02:14:32;5.00;99.90
42365;DHT22;28498;54.400;18.566;2023-05-10T02:17:02;5.00;99.90
42365;DHT22;28498;54.400;18.566;2023-05-10T02:19:32;4.90;1.00
42365;DHT22;28498;54.400;18.566;2023-05-10T02:21:59;4.90;1.00
42365;DHT22;28498;54.400;18.566;2023-05-10T02:24:27;4.80;88.00
42365;DHT22;28498;54.400;18.566;2023-05-10T02:26:55;4.80;99.90
42365;DHT22;28498;54.400;18.566;2023-05-10T02:29:26;4.70;99.90
42365;DHT22;28498;54.400;18.566;2023-05-10T02:31:54;4.70;99.90
42365;DHT22;28498;54.400;18.566;2023-05-10T02:34:23;4.70;1.00
42365;DHT22;28498;54.400;18.566;2023-05-10T02:36:53;4.70;99.90
42365;DHT22;28498;54.400;18.566;2023-05-10T02:39:21;4.60;99.90
42365;DHT22;28498;54.400;18.566;2023-05-10T02:41:50;4.60;99.90
42365;DHT22;28498;54.400;18.566;2023-05-10T02:44:19;4.50;99.90
42365;DHT22;28498;54.400;18.566;2023-05-10T02:46:47;4.50;1.00
42365;DHT22;28498;54.400;18.566;2023-05-10T02:49:15;4.50;71.50
42365;DHT22;28498;54.400;18.566;2023-05-10T02:51:50;4.50;99.90
42365;DHT22;28498;54.400;18.566;2023-05-10T02:54:20;4.60;65.10
42365;DHT22;28498;54.400;18.566;2023-05-10T02:56:57;4.60;92.60
42365;DHT22;28498;54.400;18.566;2023-05-10T02:59:24;4.60;23.90
42365;DHT22;28498;54.400;18.566;2023-05-10T03:01:51;4.60;20.10
42365;DHT22;28498;54.400;18.566;2023-05-10T03:04:18;4.70;85.40
42365;DHT22;28498;54.400;18.566;2023-05-10T03:06:45;4.70;1.00
42365;DHT22;28498;54.400;18.566;2023-05-10T03:09:13;4.70;1.00
42365;DHT22;28498;54.400;18.566;2023-05-10T03:12:07;4.60;30.00
42365;DHT22;28498;54.400;18.566;2023-05-10T03:15:15;4.60;1.00
42365;DHT22;28498;54.400;18.566;2023-05-10T03:21:02;4.90;1.00
42365;DHT22;28498;54.400;18.566;2023-05-10T03:23:54;5.10;99.90
42365;DHT22;28498;54.400;18.566;2023-05-10T03:26:26;5.30;1.00
42365;DHT22;28498;54.400;18.566;2023-05-10T03:28:55;5.40;99.70
42365;DHT22;28498;54.400;18.566;2023-05-10T03:31:22;5.60;99.90
42365;DHT22;28498;54.400;18.566;2023-05-10T03:33:51;5.70;56.80
42365;DHT22;28498;54.400;18.566;2023-05-10T03:36:18;5.90;99.90
42365;DHT22;28498;54.400;18.566;2023-05-10T03:38:45;6.20;99.90
42365;DHT22;28498;54.400;18.566;2023-05-10T03:41:12;6.40;66.70
42365;DHT22;28498;54.400;18.566;2023-05-10T03:43:39;6.90;99.90
42365;DHT22;28498;54.400;18.566;2023-05-10T03:46:07;7.30;1.00
42365;DHT22;28498;54.400;18.566;2023-05-10T03:48:34;7.90;1.00
42365;DHT22;28498;54.400;18.566;2023-05-10T03:51:01;8.30;99.90
42365;DHT22;28498;54.400;18.566;2023-05-10T03:53:29;8.80;1.00
42365;DHT22;28498;54.400;18.566;2023-05-10T03:55:55;9.30;99.90
42365;DHT22;28498;54.400;18.566;2023-05-10T03:58:22;9.90;99.90
42365;DHT22;28498;54.400;18.566;2023-05-10T04:00:51;10.30;1.00
42365;DHT22;28498;54.400;18.566;2023-05-10T04:03:18;10.50;99.90
42365;DHT22;28498;54.400;18.566;2023-05-10T04:05:45;10.20;99.90
42365;DHT22;28498;54.400;18.566;2023-05-10T04:08:12;10.30;99.90
42365;DHT22;28498;54.400;18.566;2023-05-10T04:10:39;10.70;99.90
42365;DHT22;28498;54.400;18.566;2023-05-10T04:13:06;10.90;99.90
42365;DHT22;28498;54.400;18.566;2023-05-10T04:15:33;10.80;99.90
42365;DHT22;28498;54.400;18.566;2023-05-10T04:18:00;10.50;99.90
42365;DHT22;28498;54.400;18.566;2023-05-10T04:20:27;10.20;99.90
42365;DHT22;28498;54.400;18.566;2023-05-10T04:22:54;9.90;99.90
42365;DHT22;28498;54.400;18.566;2023-05-10T04:25:21;10.00;99.90
42365;DHT22;28498;54.400;18.566;2023-05-10T04:27:48;10.00;99.90
42365;DHT22;28498;54.400;18.566;2023-05-10T04:30:15;10.20;99.90
42365;DHT22;28498;54.400;18.566;2023-05-10T04:32:42;10.30;99.90
42365;DHT22;28498;54.400;18.566;2023-05-10T04:35:09;10.10;99.90
42365;DHT22;28498;54.400;18.566;2023-05-10T04:37:37;10.20;99.90
42365;DHT22;28498;54.400;18.566;2023-05-10T04:40:04;10.00;92.00
42365;DHT22;28498;54.400;18.566;2023-05-10T04:42:31;9.80;98.00
42365;DHT22;28498;54.400;18.566;2023-05-10T04:44:59;9.70;98.80
42365;DHT22;28498;54.400;18.566;2023-05-10T04:47:26;9.70;95.30
42365;DHT22;28498;54.400;18.566;2023-05-10T04:49:52;9.40;97.90
42365;DHT22;28498;54.400;18.566;2023-05-10T04:52:19;9.50;93.70
42365;DHT22;28498;54.400;18.566;2023-05-10T04:54:46;9.40;99.90
42365;DHT22;28498;54.400;18.566;2023-05-10T04:57:13;9.60;99.90
42365;DHT22;28498;54.400;18.566;2023-05-10T04:59:40;9.80;99.90
42365;DHT22;28498;54.400;18.566;2023-05-10T05:02:07;10.00;98.40
42365;DHT22;28498;54.400;18.566;2023-05-10T05:04:34;10.30;94.80
42365;DHT22;28498;54.400;18.566;2023-05-10T05:07:01;10.70;84.70
42365;DHT22;28498;54.400;18.566;2023-05-10T05:09:28;11.00;15.80
42365;DHT22;28498;54.400;18.566;2023-05-10T05:11:55;10.90;12.50
42365;DHT22;28498;54.400;18.566;2023-05-10T05:14:22;10.80;8.90
42365;DHT22;28498;54.400;18.566;2023-05-10T05:16:52;10.80;1.00
42365;DHT22;28498;54.400;18.566;2023-05-10T05:19:19;10.90;1.00
42365;DHT22;28498;54.400;18.566;2023-05-10T05:21:46;11.00;1.00
42365;DHT22;28498;54.400;18.566;2023-05-10T05:24:13;10.90;1.00
42365;DHT22;28498;54.400;18.566;2023-05-10T05:26:40;11.00;1.00
42365;DHT22;28498;54.400;18.566;2023-05-10T05:29:08;11.10;1.00
42365;DHT22;28498;54.400;18.566;2023-05-10T05:31:35;11.20;1.00
42365;DHT22;28498;54.400;18.566;2023-05-10T05:34:02;11.30;1.00
42365;DHT22;28498;54.400;18.566;2023-05-10T05:36:29;11.30;1.00
42365;DHT22;28498;54.400;18.566;2023-05-10T05:38:56;11.40;1.00
42365;DHT22;28498;54.400;18.566;2023-05-10T05:41:22;11.30;1.00
42365;DHT22;28498;54.400;18.566;2023-05-10T05:43:51;11.40;1.00
42365;DHT22;28498;54.400;18.566;2023-05-10T05:46:18;11.60;1.00
42365;DHT22;28498;54.400;18.566;2023-05-10T05:48:45;11.60;1.00
42365;DHT22;28498;54.400;18.566;2023-05-10T05:51:11;11.70;1.00
42365;DHT22;28498;54.400;18.566;2023-05-10T05:53:38;11.90;1.00
42365;DHT22;28498;54.400;18.566;2023-05-10T05:56:05;11.70;1.00
42365;DHT22;28498;54.400;18.566;2023-05-10T05:58:33;11.60;1.00
42365;DHT22;28498;54.400;18.566;2023-05-10T06:01:00;11.50;1.00
42365;DHT22;28498;54.400;18.566;2023-05-10T06:03:27;11.70;1.00
42365;DHT22;28498;54.400;18.566;2023-05-10T06:05:54;11.90;1.00
42365;DHT22;28498;54.400;18.566;2023-05-10T06:08:21;12.10;1.00
42365;DHT22;28498;54.400;18.566;2023-05-10T06:10:48;12.00;1.00
42365;DHT22;28498;54.400;18.566;2023-05-10T06:13:15;12.30;1.00
42365;DHT22;28498;54.400;18.566;2023-05-10T06:15:42;12.40;1.00
42365;DHT22;28498;54.400;18.566;2023-05-10T06:18:09;12.50;1.00
42365;DHT22;28498;54.400;18.566;2023-05-10T06:20:36;12.60;99.90
42365;DHT22;28498;54.400;18.566;2023-05-10T06:23:03;12.70;1.00
42365;DHT22;28498;54.400;18.566;2023-05-10T06:25:30;12.70;99.90
42365;DHT22;28498;54.400;18.566;2023-05-10T06:27:57;12.70;1.00
42365;DHT22;28498;54.400;18.566;2023-05-10T06:30:25;12.80;99.90
42365;DHT22;28498;54.400;18.566;2023-05-10T06:32:55;12.90;99.90
42365;DHT22;28498;54.400;18.566;2023-05-10T06:35:23;13.10;99.90
42365;DHT22;28498;54.400;18.566;2023-05-10T06:37:50;13.30;99.90
42365;DHT22;28498;54.400;18.566;2023-05-10T06:40:18;13.30;99.90
42365;DHT22;28498;54.400;18.566;2023-05-10T06:42:45;13.40;99.90
42365;DHT22;28498;54.400;18.566;2023-05-10T06:45:13;13.40;99.90
42365;DHT22;28498;54.400;18.566;2023-05-10T06:47:41;13.50;99.90
42365;DHT22;28498;54.400;18.566;2023-05-10T06:50:09;13.80;99.90
42365;DHT22;28498;54.400;18.566;2023-05-10T06:52:36;13.80;99.90
42365;DHT22;28498;54.400;18.566;2023-05-10T06:55:04;13.90;99.90
42365;DHT22;28498;54.400;18.566;2023-05-10T06:57:31;14.10;99.90
42365;DHT22;28498;54.400;18.566;2023-05-10T06:59:59;14.20;99.90
42365;DHT22;28498;54.400;18.566;2023-05-10T07:02:26;14.20;99.90
42365;DHT22;28498;54.400;18.566;2023-05-10T07:04:53;14.20;99.90
42365;DHT22;28498;54.400;18.566;2023-05-10T07:07:20;14.30;99.90
42365;DHT22;28498;54.400;18.566;2023-05-10T07:09:47;14.40;99.90
42365;DHT22;28498;54.400;18.566;2023-05-10T07:12:16;14.50;99.90
42365;DHT22;28498;54.400;18.566;2023-05-10T07:14:43;14.80;99.90
42365;DHT22;28498;54.400;18.566;2023-05-10T07:17:10;14.90;99.90
42365;DHT22;28498;54.400;18.566;2023-05-10T07:19:37;15.00;99.90
42365;DHT22;28498;54.400;18.566;2023-05-10T07:22:04;15.10;99.90
42365;DHT22;28498;54.400;18.566;2023-05-10T07:24:32;15.00;99.90
42365;DHT22;28498;54.400;18.566;2023-05-10T07:26:59;15.10;99.90
42365;DHT22;28498;54.400;18.566;2023-05-10T07:29:26;15.30;99.90
42365;DHT22;28498;54.400;18.566;2023-05-10T07:31:54;15.50;99.90
42365;DHT22;28498;54.400;18.566;2023-05-10T07:34:24;15.60;99.90
42365;DHT22;28498;54.400;18.566;2023-05-10T07:36:52;15.60;99.90
42365;DHT22;28498;54.400;18.566;2023-05-10T07:39:19;15.80;99.90
42365;DHT22;28498;54.400;18.566;2023-05-10T07:41:53;15.80;99.90
42365;DHT22;28498;54.400;18.566;2023-05-10T07:44:20;15.80;99.90
42365;DHT22;28498;54.400;18.566;2023-05-10T07:46:47;16.00;99.90
42365;DHT22;28498;54.400;18.566;2023-05-10T07:49:16;16.20;99.90
42365;DHT22;28498;54.400;18.566;2023-05-10T07:51:43;16.10;99.90
42365;DHT22;28498;54.400;18.566;2023-05-10T07:54:10;16.20;99.90
42365;DHT22;28498;54.400;18.566;2023-05-10T07:56:37;16.20;99.90
42365;DHT22;28498;54.400;18.566;2023-05-10T07:59:05;16.30;99.90
42365;DHT22;28498;54.400;18.566;2023-05-10T08:01:35;16.30;99.90
42365;DHT22;28498;54.400;18.566;2023-05-10T08:04:02;16.40;99.90
42365;DHT22;28498;54.400;18.566;2023-05-10T08:06:29;16.50;99.90
42365;DHT22;28498;54.400;18.566;2023-05-10T08:08:57;16.50;99.90
42365;DHT22;28498;54.400;18.566;2023-05-10T08:11:24;16.50;99.90
42365;DHT22;28498;54.400;18.566;2023-05-10T08:13:52;16.60;99.90
42365;DHT22;28498;54.400;18.566;2023-05-10T08:16:20;16.80;99.90
42365;DHT22;28498;54.400;18.566;2023-05-10T08:18:47;16.80;99.90
42365;DHT22;28498;54.400;18.566;2023-05-10T08:21:15;17.00;99.90
42365;DHT22;28498;54.400;18.566;2023-05-10T08:23:42;17.00;99.90
42365;DHT22;28498;54.400;18.566;2023-05-10T08:26:11;17.10;99.90
42365;DHT22;28498;54.400;18.566;2023-05-10T08:28:38;17.10;99.90
42365;DHT22;28498;54.400;18.566;2023-05-10T08:31:05;17.20;99.90
42365;DHT22;28498;54.400;18.566;2023-05-10T08:33:32;17.30;99.90
42365;DHT22;28498;54.400;18.566;2023-05-10T08:35:59;17.20;99.90
42365;DHT22;28498;54.400;18.566;2023-05-10T08:38:26;17.40;99.90
42365;DHT22;28498;54.400;18.566;2023-05-10T08:40:54;17.40;99.90
42365;DHT22;28498;54.400;18.566;2023-05-10T08:43:29;17.50;99.90
42365;DHT22;28498;54.400;18.566;2023-05-10T08:46:00;17.40;99.90
42365;DHT22;28498;54.400;18.566;2023-05-10T08:48:30;17.60;99.90
42365;DHT22;28498;54.400;18.566;2023-05-10T08:50:58;17.60;99.90
42365;DHT22;28498;54.400;18.566;2023-05-10T08:53:28;17.50;99.90
42365;DHT22;28498;54.400;18.566;2023-05-10T08:55:57;17.50;99.90
42365;DHT22;28498;54.400;18.566;2023-05-10T08:58:25;17.30;99.90
42365;DHT22;28498;54.400;18.566;2023-05-10T09:00:52;17.40;99.90
42365;DHT22;28498;54.400;18.566;2023-05-10T09:03:19;17.60;99.90
42365;DHT22;28498;54.400;18.566;2023-05-10T09:05:47;17.60;99.90
42365;DHT22;28498;54.400;18.566;2023-05-10T09:08:15;17.80;99.90
42365;DHT22;28498;54.400;18.566;2023-05-10T09:10:46;17.90;99.90
42365;DHT22;28498;54.400;18.566;2023-05-10T09:13:15;17.90;99.90
42365;DHT22;28498;54.400;18.566;2023-05-10T09:15:45;17.90;99.10
42365;DHT22;28498;54.400;18.566;2023-05-10T09:18:12;17.80;97.50
42365;DHT22;28498;54.400;18.566;2023-05-10T09:20:40;17.90;96.70
42365;DHT22;28498;54.400;18.566;2023-05-10T09:23:08;17.90;97.50
42365;DHT22;28498;54.400;18.566;2023-05-10T09:25:35;17.80;96.60
42365;DHT22;28498;54.400;18.566;2023-05-10T09:28:06;17.70;95.90
42365;DHT22;28498;54.400;18.566;2023-05-10T09:30:34;17.70;97.20
42365;DHT22;28498;54.400;18.566;2023-05-10T09:33:01;17.80;93.40
42365;DHT22;28498;54.400;18.566;2023-05-10T09:35:31;17.80;92.00
42365;DHT22;28498;54.400;18.566;2023-05-10T09:38:01;17.70;88.90
42365;DHT22;28498;54.400;18.566;2023-05-10T09:40:29;17.70;85.20
42365;DHT22;28498;54.400;18.566;2023-05-10T09:43:06;17.80;92.50
42365;DHT22;28498;54.400;18.566;2023-05-10T09:45:34;17.90;90.20
42365;DHT22;28498;54.400;18.566;2023-05-10T09:48:05;18.10;99.40
42365;DHT22;28498;54.400;18.566;2023-05-10T09:50:32;18.10;99.90
42365;DHT22;28498;54.400;18.566;2023-05-10T09:53:02;18.10;98.90
42365;DHT22;28498;54.400;18.566;2023-05-10T09:55:40;18.10;99.90
42365;DHT22;28498;54.400;18.566;2023-05-10T09:58:07;18.00;99.90
42365;DHT22;28498;54.400;18.566;2023-05-10T10:00:39;18.10;99.90
42365;DHT22;28498;54.400;18.566;2023-05-10T10:03:15;18.30;99.90
42365;DHT22;28498;54.400;18.566;2023-05-10T10:05:44;18.30;95.10
42365;DHT22;28498;54.400;18.566;2023-05-10T10:08:12;18.30;99.90
42365;DHT22;28498;54.400;18.566;2023-05-10T10:10:40;18.30;97.90
42365;DHT22;28498;54.400;18.566;2023-05-10T10:13:08;18.20;99.90
42365;DHT22;28498;54.400;18.566;2023-05-10T10:15:35;18.30;99.90
42365;DHT22;28498;54.400;18.566;2023-05-10T10:18:03;18.10;99.90
42365;DHT22;28498;54.400;18.566;2023-05-10T10:20:33;18.20;99.90
42365;DHT22;28498;54.400;18.566;2023-05-10T10:23:00;18.40;99.90
42365;DHT22;28498;54.400;18.566;2023-05-10T10:25:27;18.50;99.90
42365;DHT22;28498;54.400;18.566;2023-05-10T10:30:40;18.60;99.90
42365;DHT22;28498;54.400;18.566;2023-05-10T10:33:59;18.60;99.90
42365;DHT22;28498;54.400;18.566;2023-05-10T10:36:26;18.60;99.90
42365;DHT22;28498;54.400;18.566;2023-05-10T10:39:01;18.60;99.90
42365;DHT22;28498;54.400;18.566;2023-05-10T10:41:30;18.70;99.90
42365;DHT22;28498;54.400;18.566;2023-05-10T10:52:30;18.60;99.90
42365;DHT22;28498;54.400;18.566;2023-05-10T10:55:11;18.50;99.90
42365;DHT22;28498;54.400;18.566;2023-05-10T10:57:44;18.70;99.90
42365;DHT22;28498;54.400;18.566;2023-05-10T11:03:09;19.00;1.00
42365;DHT22;28498;54.400;18.566;2023-05-10T11:05:46;19.10;99.90
42365;DHT22;28498;54.400;18.566;2023-05-10T11:08:17;19.10;15.10
42365;DHT22;28498;54.400;18.566;2023-05-10T11:13:47;19.00;99.90
42365;DHT22;28498;54.400;18.566;2023-05-10T11:19:07;19.20;99.90
42365;DHT22;28498;54.400;18.566;2023-05-10T11:21:47;19.20;95.10
42365;DHT22;28498;54.400;18.566;2023-05-10T11:24:22;19.20;99.90
42365;DHT22;28498;54.400;18.566;2023-05-10T11:26:50;19.30;99.90
42365;DHT22;28498;54.400;18.566;2023-05-10T11:29:18;19.40;99.90
42365;DHT22;28498;54.400;18.566;2023-05-10T11:31:46;19.30;99.90
42365;DHT22;28498;54.400;18.566;2023-05-10T11:34:46;19.40;99.90
42365;DHT22;28498;54.400;18.566;2023-05-10T11:37:14;19.60;1.00
42365;DHT22;28498;54.400;18.566;2023-05-10T11:39:45;19.50;99.90
42365;DHT22;28498;54.400;18.566;2023-05-10T11:42:14;19.50;99.90
42365;DHT22;28498;54.400;18.566;2023-05-10T11:44:41;19.80;1.00
42365;DHT22;28498;54.400;18.566;2023-05-10T11:47:08;19.70;99.90
42365;DHT22;28498;54.400;18.566;2023-05-10T11:49:35;19.40;1.00
42365;DHT22;28498;54.400;18.566;2023-05-10T11:52:09;19.70;1.00
42365;DHT22;28498;54.400;18.566;2023-05-10T11:54:42;19.80;99.90
42365;DHT22;28498;54.400;18.566;2023-05-10T11:57:11;19.80;99.90
42365;DHT22;28498;54.400;18.566;2023-05-10T11:59:38;19.90;99.90
42365;DHT22;28498;54.400;18.566;2023-05-10T12:02:10;20.10;99.90
42365;DHT22;28498;54.400;18.566;2023-05-10T12:04:37;20.20;1.00
42365;DHT22;28498;54.400;18.566;2023-05-10T12:07:04;20.30;99.90
42365;DHT22;28498;54.400;18.566;2023-05-10T12:09:31;20.20;21.80
42365;DHT22;28498;54.400;18.566;2023-05-10T12:12:09;20.00;99.90
42365;DHT22;28498;54.400;18.566;2023-05-10T12:14:36;20.20;15.10
42365;DHT22;28498;54.400;18.566;2023-05-10T12:17:03;19.90;1.00
42365;DHT22;28498;54.400;18.566;2023-05-10T12:19:40;19.90;99.90
42365;DHT22;28498;54.400;18.566;2023-05-10T12:22:07;20.00;60.00
42365;DHT22;28498;54.400;18.566;2023-05-10T12:24:37;20.10;99.90
42365;DHT22;28498;54.400;18.566;2023-05-10T12:27:06;20.00;99.90
42365;DHT22;28498;54.400;18.566;2023-05-10T12:29:34;20.00;99.90
42365;DHT22;28498;54.400;18.566;2023-05-10T12:32:02;20.20;99.90
42365;DHT22;28498;54.400;18.566;2023-05-10T12:34:33;20.20;99.90
42365;DHT22;28498;54.400;18.566;2023-05-10T12:37:02;20.00;99.90
42365;DHT22;28498;54.400;18.566;2023-05-10T12:39:40;19.90;1.00
42365;DHT22;28498;54.400;18.566;2023-05-10T12:42:08;19.90;99.90
42365;DHT22;28498;54.400;18.566;2023-05-10T12:44:35;20.00;99.90
42365;DHT22;28498;54.400;18.566;2023-05-10T12:47:02;19.80;99.90
42365;DHT22;28498;54.400;18.566;2023-05-10T12:49:29;20.00;1.00
42365;DHT22;28498;54.400;18.566;2023-05-10T12:51:56;20.10;99.90
42365;DHT22;28498;54.400;18.566;2023-05-10T12:54:23;20.00;1.00
42365;DHT22;28498;54.400;18.566;2023-05-10T12:56:50;20.20;99.90
42365;DHT22;28498;54.400;18.566;2023-05-10T12:59:17;20.30;99.90
42365;DHT22;28498;54.400;18.566;2023-05-10T13:01:44;20.30;99.90
42365;DHT22;28498;54.400;18.566;2023-05-10T13:04:12;20.30;99.90
42365;DHT22;28498;54.400;18.566;2023-05-10T13:06:39;20.40;99.90
42365;DHT22;28498;54.400;18.566;2023-05-10T13:09:06;20.40;99.90
42365;DHT22;28498;54.400;18.566;2023-05-10T13:11:33;20.30;99.90
42365;DHT22;28498;54.400;18.566;2023-05-10T13:14:00;20.40;1.00
42365;DHT22;28498;54.400;18.566;2023-05-10T13:16:29;20.40;99.90
42365;DHT22;28498;54.400;18.566;2023-05-10T13:18:57;20.20;1.00
42365;DHT22;28498;54.400;18.566;2023-05-10T13:21:25;20.40;1.00
42365;DHT22;28498;54.400;18.566;2023-05-10T13:23:53;20.30;1.00
42365;DHT22;28498;54.400;18.566;2023-05-10T13:26:20;20.40;1.00
42365;DHT22;28498;54.400;18.566;2023-05-10T13:28:47;20.30;1.00
42365;DHT22;28498;54.400;18.566;2023-05-10T13:31:15;20.30;1.00
42365;DHT22;28498;54.400;18.566;2023-05-10T13:33:42;20.40;11.80
42365;DHT22;28498;54.400;18.566;2023-05-10T13:36:09;20.40;22.80
42365;DHT22;28498;54.400;18.566;2023-05-10T13:38:37;20.60;24.10
42365;DHT22;28498;54.400;18.566;2023-05-10T13:41:04;20.60;24.10
42365;DHT22;28498;54.400;18.566;2023-05-10T13:43:31;20.70;22.70
42365;DHT22;28498;54.400;18.566;2023-05-10T13:45:58;20.50;25.00
42365;DHT22;28498;54.400;18.566;2023-05-10T13:48:26;20.70;28.70
42365;DHT22;28498;54.400;18.566;2023-05-10T13:50:54;20.90;37.70
42365;DHT22;28498;54.400;18.566;2023-05-10T13:53:21;21.20;38.60
42365;DHT22;28498;54.400;18.566;2023-05-10T13:55:49;21.30;38.00
42365;DHT22;28498;54.400;18.566;2023-05-10T13:58:16;21.40;38.20
42365;DHT22;28498;54.400;18.566;2023-05-10T14:00:43;21.70;39.10
42365;DHT22;28498;54.400;18.566;2023-05-10T14:03:10;22.00;39.10
42365;DHT22;28498;54.400;18.566;2023-05-10T14:05:38;22.10;39.00
42365;DHT22;28498;54.400;18.566;2023-05-10T14:08:05;22.30;37.60
42365;DHT22;28498;54.400;18.566;2023-05-10T14:10:32;22.50;38.00
42365;DHT22;28498;54.400;18.566;2023-05-10T14:12:59;22.60;39.40
42365;DHT22;28498;54.400;18.566;2023-05-10T14:15:26;23.00;39.60
42365;DHT22;28498;54.400;18.566;2023-05-10T14:17:53;23.40;38.30
42365;DHT22;28498;54.400;18.566;2023-05-10T14:20:20;23.40;38.10
42365;DHT22;28498;54.400;18.566;2023-05-10T14:22:48;23.40;38.00
42365;DHT22;28498;54.400;18.566;2023-05-10T14:25:15;23.50;37.40
42365;DHT22;28498;54.400;18.566;2023-05-10T14:27:42;23.50;37.70
42365;DHT22;28498;54.400;18.566;2023-05-10T14:30:10;23.70;38.20
42365;DHT22;28498;54.400;18.566;2023-05-10T14:32:37;23.70;37.80
42365;DHT22;28498;54.400;18.566;2023-05-10T14:35:04;23.50;37.50
42365;DHT22;28498;54.400;18.566;2023-05-10T14:37:33;23.40;37.60
42365;DHT22;28498;54.400;18.566;2023-05-10T14:40:00;23.30;38.50
42365;DHT22;28498;54.400;18.566;2023-05-10T14:42:27;23.20;37.70
42365;DHT22;28498;54.400;18.566;2023-05-10T14:44:55;23.10;38.30
42365;DHT22;28498;54.400;18.566;2023-05-10T14:47:22;22.90;39.10
42365;DHT22;28498;54.400;18.566;2023-05-10T14:49:49;23.00;38.90
42365;DHT22;28498;54.400;18.566;2023-05-10T14:52:16;23.00;38.20
42365;DHT22;28498;54.400;18.566;2023-05-10T14:54:44;23.00;39.00
42365;DHT22;28498;54.400;18.566;2023-05-10T14:57:11;23.00;37.50
42365;DHT22;28498;54.400;18.566;2023-05-10T14:59:38;22.80;37.30
42365;DHT22;28498;54.400;18.566;2023-05-10T15:02:06;22.70;37.80
42365;DHT22;28498;54.400;18.566;2023-05-10T15:04:35;22.90;38.50
42365;DHT22;28498;54.400;18.566;2023-05-10T15:07:03;22.50;38.00
42365;DHT22;28498;54.400;18.566;2023-05-10T15:09:30;22.70;37.80
42365;DHT22;28498;54.400;18.566;2023-05-10T15:11:57;22.20;38.10
42365;DHT22;28498;54.400;18.566;2023-05-10T15:14:24;22.40;38.40
42365;DHT22;28498;54.400;18.566;2023-05-10T15:16:51;22.90;38.40
42365;DHT22;28498;54.400;18.566;2023-05-10T15:19:19;22.70;38.40
42365;DHT22;28498;54.400;18.566;2023-05-10T15:21:47;23.20;38.40
42365;DHT22;28498;54.400;18.566;2023-05-10T15:24:14;23.10;37.30
42365;DHT22;28498;54.400;18.566;2023-05-10T15:26:41;23.00;37.70
42365;DHT22;28498;54.400;18.566;2023-05-10T15:29:08;23.20;37.90
42365;DHT22;28498;54.400;18.566;2023-05-10T15:31:36;23.00;38.40
42365;DHT22;28498;54.400;18.566;2023-05-10T15:34:03;22.70;37.90
42365;DHT22;28498;54.400;18.566;2023-05-10T15:36:32;22.70;38.50
42365;DHT22;28498;54.400;18.566;2023-05-10T15:38:59;23.20;37.80
42365;DHT22;28498;54.400;18.566;2023-05-10T15:41:26;23.00;38.70
42365;DHT22;28498;54.400;18.566;2023-05-10T15:43:54;23.10;38.10
42365;DHT22;28498;54.400;18.566;2023-05-10T15:46:22;22.90;38.10
42365;DHT22;28498;54.400;18.566;2023-05-10T15:48:49;22.80;37.80
42365;DHT22;28498;54.400;18.566;2023-05-10T15:51:16;22.70;38.00
42365;DHT22;28498;54.400;18.566;2023-05-10T15:53:45;22.70;38.10
42365;DHT22;28498;54.400;18.566;2023-05-10T15:56:32;22.70;38.00
42365;DHT22;28498;54.400;18.566;2023-05-10T15:59:00;23.00;38.10
42365;DHT22;28498;54.400;18.566;2023-05-10T16:01:27;22.80;38.00
42365;DHT22;28498;54.400;18.566;2023-05-10T16:03:55;22.90;38.10
42365;DHT22;28498;54.400;18.566;2023-05-10T16:06:22;22.90;38.10
42365;DHT22;28498;54.400;18.566;2023-05-10T16:08:49;22.60;38.10